sensor_id;sensor_type;location;lat;lon;timestamp;P1;durP1;ratioP1;P2;durP2;ratioP2
70850;SDS011;58475;49.662;9.636;2023-05-28T00:02:18;6.93;;;3.50;;
70850;SDS011;58475;49.662;9.636;2023-05-28T00:04:43;6.57;;;3.03;;
70850;SDS011;58475;49.662;9.636;2023-05-28T00:07:09;7.47;;;3.58;;
70850;SDS011;58475;49.662;9.636;2023-05-28T00:09:36;8.43;;;3.80;;
70850;SDS011;58475;49.662;9.636;2023-05-28T00:12:01;7.60;;;3.20;;
70850;SDS011;58475;49.662;9.636;2023-05-28T00:14:27;7.00;;;3.13;;
70850;SDS011;58475;49.662;9.636;2023-05-28T00:16:52;8.85;;;3.65;;
70850;SDS011;58475;49.662;9.636;2023-05-28T00:19:18;8.02;;;3.63;;
70850;SDS011;58475;49.662;9.636;2023-05-28T00:21:43;9.95;;;3.63;;
70850;SDS011;58475;49.662;9.636;2023-05-28T00:24:08;7.07;;;3.20;;
70850;SDS011;58475;49.662;9.636;2023-05-28T00:26:34;7.22;;;3.35;;
70850;SDS011;58475;49.662;9.636;2023-05-28T00:28:59;8.85;;;3.75;;
70850;SDS011;58475;49.662;9.636;2023-05-28T00:31:25;7.32;;;3.40;;
70850;SDS011;58475;49.662;9.636;2023-05-28T00:33:50;8.43;;;3.55;;
70850;SDS011;58475;49.662;9.636;2023-05-28T00:36:15;7.93;;;3.28;;
70850;SDS011;58475;49.662;9.636;2023-05-28T00:38:41;6.30;;;2.97;;
70850;SDS011;58475;49.662;9.636;2023-05-28T00:41:06;8.70;;;3.40;;
70850;SDS011;58475;49.662;9.636;2023-05-28T00:43:32;8.63;;;3.42;;
70850;SDS011;58475;49.662;9.636;2023-05-28T00:45:58;8.02;;;3.28;;
70850;SDS011;58475;49.662;9.636;2023-05-28T00:48:27;8.27;;;3.30;;
70850;SDS011;58475;49.662;9.636;2023-05-28T00:50:54;8.25;;;3.50;;
70850;SDS011;58475;49.662;9.636;2023-05-28T00:53:21;9.68;;;3.42;;
70850;SDS011;58475;49.662;9.636;2023-05-28T00:55:48;7.90;;;3.40;;
70850;SDS011;58475;49.662;9.636;2023-05-28T00:58:13;6.38;;;3.25;;
70850;SDS011;58475;49.662;9.636;2023-05-28T01:00:41;6.78;;;3.00;;
70850;SDS011;58475;49.662;9.636;2023-05-28T01:03:08;9.05;;;3.35;;
70850;SDS011;58475;49.662;9.636;2023-05-28T01:05:34;6.03;;;3.10;;
70850;SDS011;58475;49.662;9.636;2023-05-28T01:08:01;7.43;;;3.10;;
70850;SDS011;58475;49.662;9.636;2023-05-28T01:10:28;8.48;;;3.30;;
70850;SDS011;58475;49.662;9.636;2023-05-28T01:12:54;7.93;;;3.20;;
70850;SDS011;58475;49.662;9.636;2023-05-28T01:15:21;6.47;;;3.30;;
70850;SDS011;58475;49.662;9.636;2023-05-28T01:17:47;10.32;;;3.17;;
70850;SDS011;58475;49.662;9.636;2023-05-28T01:20:13;8.13;;;3.35;;
70850;SDS011;58475;49.662;9.636;2023-05-28T01:22:39;7.93;;;3.30;;
70850;SDS011;58475;49.662;9.636;2023-05-28T01:25:17;8.50;;;3.30;;
70850;SDS011;58475;49.662;9.636;2023-05-28T01:27:43;8.15;;;3.20;;
70850;SDS011;58475;49.662;9.636;2023-05-28T01:30:09;8.05;;;3.05;;
70850;SDS011;58475;49.662;9.636;2023-05-28T01:32:35;7.43;;;3.17;;
70850;SDS011;58475;49.662;9.636;2023-05-28T01:35:02;8.05;;;3.50;;
70850;SDS011;58475;49.662;9.636;2023-05-28T01:37:28;9.55;;;3.30;;
70850;SDS011;58475;49.662;9.636;2023-05-28T01:39:55;6.75;;;3.22;;
70850;SDS011;58475;49.662;9.636;2023-05-28T01:42:22;6.50;;;3.17;;
70850;SDS011;58475;49.662;9.636;2023-05-28T01:44:48;6.90;;;3.30;;
70850;SDS011;58475;49.662;9.636;2023-05-28T01:47:15;7.28;;;3.30;;
70850;SDS011;58475;49.662;9.636;2023-05-28T01:49:41;8.52;;;3.53;;
70850;SDS011;58475;49.662;9.636;2023-05-28T01:52:08;11.40;;;3.60;;
70850;SDS011;58475;49.662;9.636;2023-05-28T01:54:34;8.73;;;3.15;;
70850;SDS011;58475;49.662;9.636;2023-05-28T01:57:00;7.63;;;3.28;;
70850;SDS011;58475;49.662;9.636;2023-05-28T01:59:26;6.72;;;3.55;;
70850;SDS011;58475;49.662;9.636;2023-05-28T02:01:51;9.55;;;3.47;;
70850;SDS011;58475;49.662;9.636;2023-05-28T02:04:17;8.43;;;3.47;;
70850;SDS011;58475;49.662;9.636;2023-05-28T02:06:44;7.82;;;3.10;;
70850;SDS011;58475;49.662;9.636;2023-05-28T02:09:10;5.85;;;2.70;;
70850;SDS011;58475;49.662;9.636;2023-05-28T02:11:36;7.72;;;3.00;;
70850;SDS011;58475;49.662;9.636;2023-05-28T02:14:01;7.43;;;3.60;;
70850;SDS011;58475;49.662;9.636;2023-05-28T02:16:28;6.40;;;2.70;;
70850;SDS011;58475;49.662;9.636;2023-05-28T02:18:54;6.40;;;2.80;;
70850;SDS011;58475;49.662;9.636;2023-05-28T02:21:21;7.03;;;2.92;;
70850;SDS011;58475;49.662;9.636;2023-05-28T02:23:47;6.55;;;3.05;;
70850;SDS011;58475;49.662;9.636;2023-05-28T02:26:15;7.22;;;3.03;;
70850;SDS011;58475;49.662;9.636;2023-05-28T02:28:42;6.57;;;3.22;;
70850;SDS011;58475;49.662;9.636;2023-05-28T02:31:08;6.05;;;3.03;;
70850;SDS011;58475;49.662;9.636;2023-05-28T02:33:37;9.77;;;3.58;;
70850;SDS011;58475;49.662;9.636;2023-05-28T02:36:03;8.27;;;3.20;;
70850;SDS011;58475;49.662;9.636;2023-05-28T02:38:31;6.38;;;3.08;;
70850;SDS011;58475;49.662;9.636;2023-05-28T02:40:56;6.68;;;3.10;;
70850;SDS011;58475;49.662;9.636;2023-05-28T02:43:22;5.97;;;2.70;;
70850;SDS011;58475;49.662;9.636;2023-05-28T02:45:47;5.78;;;2.85;;
70850;SDS011;58475;49.662;9.636;2023-05-28T02:48:13;6.90;;;2.95;;
70850;SDS011;58475;49.662;9.636;2023-05-28T02:50:38;6.30;;;2.80;;
70850;SDS011;58475;49.662;9.636;2023-05-28T02:53:28;5.80;;;2.92;;
70850;SDS011;58475;49.662;9.636;2023-05-28T02:55:56;6.60;;;2.88;;
70850;SDS011;58475;49.662;9.636;2023-05-28T02:58:21;5.95;;;2.85;;
70850;SDS011;58475;49.662;9.636;2023-05-28T03:00:46;7.32;;;3.10;;
70850;SDS011;58475;49.662;9.636;2023-05-28T03:03:12;6.65;;;3.20;;
70850;SDS011;58475;49.662;9.636;2023-05-28T03:05:37;7.68;;;3.50;;
70850;SDS011;58475;49.662;9.636;2023-05-28T03:08:03;6.72;;;3.20;;
70850;SDS011;58475;49.662;9.636;2023-05-28T03:10:28;7.50;;;3.53;;
70850;SDS011;58475;49.662;9.636;2023-05-28T03:12:54;6.63;;;2.90;;
70850;SDS011;58475;49.662;9.636;2023-05-28T03:15:19;6.72;;;2.95;;
70850;SDS011;58475;49.662;9.636;2023-05-28T03:17:45;6.25;;;2.75;;
70850;SDS011;58475;49.662;9.636;2023-05-28T03:20:10;5.70;;;2.75;;
70850;SDS011;58475;49.662;9.636;2023-05-28T03:22:37;6.05;;;2.75;;
70850;SDS011;58475;49.662;9.636;2023-05-28T03:25:03;6.80;;;3.30;;
70850;SDS011;58475;49.662;9.636;2023-05-28T03:27:31;6.45;;;3.13;;
70850;SDS011;58475;49.662;9.636;2023-05-28T03:29:57;7.18;;;3.30;;
70850;SDS011;58475;49.662;9.636;2023-05-28T03:32:31;6.07;;;3.00;;
70850;SDS011;58475;49.662;9.636;2023-05-28T03:34:56;7.00;;;3.05;;
70850;SDS011;58475;49.662;9.636;2023-05-28T03:37:27;6.22;;;3.03;;
70850;SDS011;58475;49.662;9.636;2023-05-28T03:39:53;5.63;;;2.88;;
70850;SDS011;58475;49.662;9.636;2023-05-28T03:42:19;8.57;;;3.00;;
70850;SDS011;58475;49.662;9.636;2023-05-28T03:44:45;6.75;;;3.10;;
70850;SDS011;58475;49.662;9.636;2023-05-28T03:47:11;7.13;;;3.22;;
70850;SDS011;58475;49.662;9.636;2023-05-28T03:49:37;6.70;;;3.20;;
70850;SDS011;58475;49.662;9.636;2023-05-28T03:52:03;7.28;;;3.13;;
70850;SDS011;58475;49.662;9.636;2023-05-28T03:54:37;6.57;;;3.13;;
70850;SDS011;58475;49.662;9.636;2023-05-28T03:57:02;5.65;;;2.83;;
70850;SDS011;58475;49.662;9.636;2023-05-28T03:59:28;6.82;;;3.05;;
70850;SDS011;58475;49.662;9.636;2023-05-28T04:01:53;6.13;;;3.20;;
70850;SDS011;58475;49.662;9.636;2023-05-28T04:04:19;6.55;;;3.35;;
70850;SDS011;58475;49.662;9.636;2023-05-28T04:06:45;6.97;;;3.40;;
70850;SDS011;58475;49.662;9.636;2023-05-28T04:09:11;6.35;;;3.35;;
70850;SDS011;58475;49.662;9.636;2023-05-28T04:11:36;8.30;;;3.58;;
70850;SDS011;58475;49.662;9.636;2023-05-28T04:14:10;7.35;;;3.30;;
70850;SDS011;58475;49.662;9.636;2023-05-28T04:16:36;8.60;;;3.65;;
70850;SDS011;58475;49.662;9.636;2023-05-28T04:19:01;7.13;;;3.50;;
70850;SDS011;58475;49.662;9.636;2023-05-28T04:21:27;6.57;;;3.20;;
70850;SDS011;58475;49.662;9.636;2023-05-28T04:23:54;6.95;;;3.30;;
70850;SDS011;58475;49.662;9.636;2023-05-28T04:26:19;7.63;;;3.67;;
70850;SDS011;58475;49.662;9.636;2023-05-28T04:28:45;7.40;;;3.70;;
70850;SDS011;58475;49.662;9.636;2023-05-28T04:31:11;8.57;;;3.47;;
70850;SDS011;58475;49.662;9.636;2023-05-28T04:33:37;9.10;;;3.47;;
70850;SDS011;58475;49.662;9.636;2023-05-28T04:36:03;8.73;;;3.88;;
70850;SDS011;58475;49.662;9.636;2023-05-28T04:38:29;8.95;;;3.78;;
70850;SDS011;58475;49.662;9.636;2023-05-28T04:40:57;7.13;;;3.40;;
70850;SDS011;58475;49.662;9.636;2023-05-28T04:43:23;8.35;;;3.30;;
70850;SDS011;58475;49.662;9.636;2023-05-28T04:45:49;7.65;;;3.80;;
70850;SDS011;58475;49.662;9.636;2023-05-28T04:48:14;7.45;;;3.53;;
70850;SDS011;58475;49.662;9.636;2023-05-28T04:50:40;7.05;;;3.60;;
70850;SDS011;58475;49.662;9.636;2023-05-28T04:53:05;7.45;;;3.80;;
70850;SDS011;58475;49.662;9.636;2023-05-28T04:55:32;7.47;;;3.70;;
70850;SDS011;58475;49.662;9.636;2023-05-28T04:57:57;7.60;;;3.63;;
70850;SDS011;58475;49.662;9.636;2023-05-28T05:00:23;7.10;;;3.80;;
70850;SDS011;58475;49.662;9.636;2023-05-28T05:02:53;9.25;;;3.70;;
70850;SDS011;58475;49.662;9.636;2023-05-28T05:05:19;9.63;;;3.95;;
70850;SDS011;58475;49.662;9.636;2023-05-28T05:07:46;8.52;;;3.75;;
70850;SDS011;58475;49.662;9.636;2023-05-28T05:10:12;8.02;;;3.53;;
70850;SDS011;58475;49.662;9.636;2023-05-28T05:12:38;8.00;;;3.65;;
70850;SDS011;58475;49.662;9.636;2023-05-28T05:15:04;9.85;;;4.22;;
70850;SDS011;58475;49.662;9.636;2023-05-28T05:17:31;8.55;;;3.75;;
70850;SDS011;58475;49.662;9.636;2023-05-28T05:19:57;8.20;;;3.75;;
70850;SDS011;58475;49.662;9.636;2023-05-28T05:22:23;8.35;;;3.58;;
70850;SDS011;58475;49.662;9.636;2023-05-28T05:24:49;7.63;;;3.92;;
70850;SDS011;58475;49.662;9.636;2023-05-28T05:27:14;9.20;;;3.95;;
70850;SDS011;58475;49.662;9.636;2023-05-28T05:29:40;6.97;;;3.50;;
70850;SDS011;58475;49.662;9.636;2023-05-28T05:32:10;7.43;;;3.80;;
70850;SDS011;58475;49.662;9.636;2023-05-28T05:34:36;8.85;;;3.65;;
70850;SDS011;58475;49.662;9.636;2023-05-28T05:37:19;9.80;;;3.80;;
70850;SDS011;58475;49.662;9.636;2023-05-28T05:40:14;8.48;;;3.67;;
70850;SDS011;58475;49.662;9.636;2023-05-28T05:42:56;7.47;;;3.55;;
70850;SDS011;58475;49.662;9.636;2023-05-28T05:45:21;9.57;;;4.57;;
70850;SDS011;58475;49.662;9.636;2023-05-28T05:47:48;7.13;;;3.30;;
70850;SDS011;58475;49.662;9.636;2023-05-28T05:50:14;9.88;;;3.97;;
70850;SDS011;58475;49.662;9.636;2023-05-28T05:52:41;7.75;;;3.60;;
70850;SDS011;58475;49.662;9.636;2023-05-28T05:55:07;9.00;;;3.85;;
70850;SDS011;58475;49.662;9.636;2023-05-28T05:57:33;8.82;;;4.07;;
70850;SDS011;58475;49.662;9.636;2023-05-28T06:00:01;9.27;;;4.10;;
70850;SDS011;58475;49.662;9.636;2023-05-28T06:02:38;6.88;;;3.53;;
70850;SDS011;58475;49.662;9.636;2023-05-28T06:05:12;7.85;;;4.07;;
70850;SDS011;58475;49.662;9.636;2023-05-28T06:07:56;8.93;;;3.47;;
70850;SDS011;58475;49.662;9.636;2023-05-28T06:10:39;9.57;;;4.28;;
70850;SDS011;58475;49.662;9.636;2023-05-28T06:13:05;8.35;;;4.13;;
70850;SDS011;58475;49.662;9.636;2023-05-28T06:15:31;7.85;;;3.97;;
70850;SDS011;58475;49.662;9.636;2023-05-28T06:17:57;9.23;;;4.05;;
70850;SDS011;58475;49.662;9.636;2023-05-28T06:20:23;9.07;;;4.18;;
70850;SDS011;58475;49.662;9.636;2023-05-28T06:22:49;7.90;;;4.05;;
70850;SDS011;58475;49.662;9.636;2023-05-28T06:25:15;8.57;;;3.45;;
70850;SDS011;58475;49.662;9.636;2023-05-28T06:27:41;9.13;;;3.80;;
70850;SDS011;58475;49.662;9.636;2023-05-28T06:30:07;8.10;;;3.75;;
70850;SDS011;58475;49.662;9.636;2023-05-28T06:32:33;7.68;;;3.72;;
70850;SDS011;58475;49.662;9.636;2023-05-28T06:34:59;7.68;;;3.90;;
70850;SDS011;58475;49.662;9.636;2023-05-28T06:37:25;8.60;;;3.70;;
70850;SDS011;58475;49.662;9.636;2023-05-28T06:39:51;7.15;;;3.70;;
70850;SDS011;58475;49.662;9.636;2023-05-28T06:42:16;7.63;;;3.60;;
70850;SDS011;58475;49.662;9.636;2023-05-28T06:44:57;8.82;;;3.88;;
70850;SDS011;58475;49.662;9.636;2023-05-28T06:47:24;7.53;;;3.60;;
70850;SDS011;58475;49.662;9.636;2023-05-28T06:49:50;8.38;;;3.67;;
70850;SDS011;58475;49.662;9.636;2023-05-28T06:52:15;8.80;;;4.13;;
70850;SDS011;58475;49.662;9.636;2023-05-28T06:54:41;8.02;;;3.78;;
70850;SDS011;58475;49.662;9.636;2023-05-28T06:57:07;7.75;;;3.90;;
70850;SDS011;58475;49.662;9.636;2023-05-28T06:59:56;7.65;;;3.47;;
70850;SDS011;58475;49.662;9.636;2023-05-28T07:02:48;9.07;;;3.85;;
70850;SDS011;58475;49.662;9.636;2023-05-28T07:05:33;9.05;;;3.97;;
70850;SDS011;58475;49.662;9.636;2023-05-28T07:08:00;12.45;;;3.95;;
70850;SDS011;58475;49.662;9.636;2023-05-28T07:10:25;11.95;;;3.97;;
70850;SDS011;58475;49.662;9.636;2023-05-28T07:12:51;9.45;;;3.67;;
70850;SDS011;58475;49.662;9.636;2023-05-28T07:15:16;8.93;;;3.30;;
70850;SDS011;58475;49.662;9.636;2023-05-28T07:17:42;11.98;;;3.70;;
70850;SDS011;58475;49.662;9.636;2023-05-28T07:20:07;8.77;;;3.92;;
70850;SDS011;58475;49.662;9.636;2023-05-28T07:22:59;12.93;;;4.00;;
70850;SDS011;58475;49.662;9.636;2023-05-28T07:25:25;9.05;;;3.67;;
70850;SDS011;58475;49.662;9.636;2023-05-28T07:27:50;6.38;;;3.17;;
70850;SDS011;58475;49.662;9.636;2023-05-28T07:30:23;7.57;;;3.67;;
70850;SDS011;58475;49.662;9.636;2023-05-28T07:32:50;8.73;;;3.58;;
70850;SDS011;58475;49.662;9.636;2023-05-28T07:35:16;9.30;;;3.90;;
70850;SDS011;58475;49.662;9.636;2023-05-28T07:37:41;11.20;;;3.88;;
70850;SDS011;58475;49.662;9.636;2023-05-28T07:40:07;8.63;;;3.80;;
70850;SDS011;58475;49.662;9.636;2023-05-28T07:42:34;8.85;;;3.83;;
70850;SDS011;58475;49.662;9.636;2023-05-28T07:45:02;10.25;;;3.97;;
70850;SDS011;58475;49.662;9.636;2023-05-28T07:47:27;8.93;;;3.70;;
70850;SDS011;58475;49.662;9.636;2023-05-28T07:50:03;8.23;;;3.65;;
70850;SDS011;58475;49.662;9.636;2023-05-28T07:52:47;7.88;;;3.90;;
70850;SDS011;58475;49.662;9.636;2023-05-28T07:55:13;8.05;;;3.83;;
70850;SDS011;58475;49.662;9.636;2023-05-28T07:57:38;7.45;;;3.35;;
70850;SDS011;58475;49.662;9.636;2023-05-28T08:00:04;10.30;;;4.10;;
70850;SDS011;58475;49.662;9.636;2023-05-28T08:02:51;10.25;;;3.90;;
70850;SDS011;58475;49.662;9.636;2023-05-28T08:05:17;9.70;;;4.00;;
70850;SDS011;58475;49.662;9.636;2023-05-28T08:07:44;9.10;;;3.97;;
70850;SDS011;58475;49.662;9.636;2023-05-28T08:10:10;8.30;;;4.25;;
70850;SDS011;58475;49.662;9.636;2023-05-28T08:12:36;10.50;;;4.25;;
70850;SDS011;58475;49.662;9.636;2023-05-28T08:15:02;11.13;;;4.22;;
70850;SDS011;58475;49.662;9.636;2023-05-28T08:17:30;7.35;;;3.78;;
70850;SDS011;58475;49.662;9.636;2023-05-28T08:20:03;10.10;;;3.97;;
70850;SDS011;58475;49.662;9.636;2023-05-28T08:23:01;8.80;;;4.03;;
70850;SDS011;58475;49.662;9.636;2023-05-28T08:25:28;8.95;;;4.00;;
70850;SDS011;58475;49.662;9.636;2023-05-28T08:28:02;8.05;;;3.85;;
70850;SDS011;58475;49.662;9.636;2023-05-28T08:30:29;11.32;;;4.10;;
70850;SDS011;58475;49.662;9.636;2023-05-28T08:33:02;8.25;;;4.10;;
70850;SDS011;58475;49.662;9.636;2023-05-28T08:35:28;8.55;;;3.80;;
70850;SDS011;58475;49.662;9.636;2023-05-28T08:37:55;9.65;;;4.10;;
70850;SDS011;58475;49.662;9.636;2023-05-28T08:40:34;9.13;;;4.10;;
70850;SDS011;58475;49.662;9.636;2023-05-28T08:43:07;9.75;;;4.32;;
70850;SDS011;58475;49.662;9.636;2023-05-28T08:45:34;10.50;;;4.50;;
70850;SDS011;58475;49.662;9.636;2023-05-28T08:48:00;8.93;;;4.18;;
70850;SDS011;58475;49.662;9.636;2023-05-28T08:50:27;7.85;;;3.85;;
70850;SDS011;58475;49.662;9.636;2023-05-28T08:53:10;7.65;;;3.83;;
70850;SDS011;58475;49.662;9.636;2023-05-28T08:55:43;8.38;;;4.90;;
70850;SDS011;58475;49.662;9.636;2023-05-28T08:58:14;8.65;;;4.20;;
70850;SDS011;58475;49.662;9.636;2023-05-28T09:00:43;7.22;;;3.70;;
70850;SDS011;58475;49.662;9.636;2023-05-28T09:03:38;10.20;;;4.47;;
70850;SDS011;58475;49.662;9.636;2023-05-28T09:06:18;9.73;;;4.10;;
70850;SDS011;58475;49.662;9.636;2023-05-28T09:08:45;10.20;;;4.30;;
70850;SDS011;58475;49.662;9.636;2023-05-28T09:11:18;10.13;;;4.18;;
70850;SDS011;58475;49.662;9.636;2023-05-28T09:13:45;8.35;;;4.18;;
70850;SDS011;58475;49.662;9.636;2023-05-28T09:16:20;8.60;;;3.60;;
70850;SDS011;58475;49.662;9.636;2023-05-28T09:18:52;9.80;;;4.20;;
70850;SDS011;58475;49.662;9.636;2023-05-28T09:21:28;9.93;;;4.05;;
70850;SDS011;58475;49.662;9.636;2023-05-28T09:23:53;11.25;;;4.22;;
70850;SDS011;58475;49.662;9.636;2023-05-28T09:26:39;9.23;;;3.90;;
70850;SDS011;58475;49.662;9.636;2023-05-28T09:29:25;11.32;;;4.20;;
70850;SDS011;58475;49.662;9.636;2023-05-28T09:31:57;10.40;;;4.30;;
70850;SDS011;58475;49.662;9.636;2023-05-28T09:34:30;8.80;;;3.75;;
70850;SDS011;58475;49.662;9.636;2023-05-28T09:37:02;8.60;;;3.75;;
70850;SDS011;58475;49.662;9.636;2023-05-28T09:39:32;7.78;;;3.55;;
70850;SDS011;58475;49.662;9.636;2023-05-28T09:42:01;8.82;;;3.63;;
70850;SDS011;58475;49.662;9.636;2023-05-28T09:44:37;11.07;;;4.20;;
70850;SDS011;58475;49.662;9.636;2023-05-28T09:47:13;9.63;;;3.70;;
70850;SDS011;58475;49.662;9.636;2023-05-28T09:49:42;8.30;;;3.67;;
70850;SDS011;58475;49.662;9.636;2023-05-28T09:52:10;8.68;;;4.35;;
70850;SDS011;58475;49.662;9.636;2023-05-28T09:54:42;8.25;;;3.97;;
70850;SDS011;58475;49.662;9.636;2023-05-28T09:57:15;11.52;;;4.05;;
70850;SDS011;58475;49.662;9.636;2023-05-28T09:59:42;10.80;;;3.85;;
70850;SDS011;58475;49.662;9.636;2023-05-28T10:02:19;9.63;;;4.10;;
70850;SDS011;58475;49.662;9.636;2023-05-28T10:04:53;8.80;;;3.85;;
70850;SDS011;58475;49.662;9.636;2023-05-28T10:07:20;10.27;;;3.97;;
70850;SDS011;58475;49.662;9.636;2023-05-28T10:09:47;11.15;;;4.22;;
70850;SDS011;58475;49.662;9.636;2023-05-28T10:12:16;8.13;;;3.78;;
70850;SDS011;58475;49.662;9.636;2023-05-28T10:14:46;11.07;;;4.07;;
70850;SDS011;58475;49.662;9.636;2023-05-28T10:17:11;8.85;;;3.75;;
70850;SDS011;58475;49.662;9.636;2023-05-28T10:19:38;10.30;;;3.67;;
70850;SDS011;58475;49.662;9.636;2023-05-28T10:22:05;8.30;;;4.05;;
70850;SDS011;58475;49.662;9.636;2023-05-28T10:24:31;9.73;;;4.07;;
70850;SDS011;58475;49.662;9.636;2023-05-28T10:26:58;9.32;;;4.10;;
70850;SDS011;58475;49.662;9.636;2023-05-28T10:29:23;8.95;;;3.95;;
70850;SDS011;58475;49.662;9.636;2023-05-28T10:31:58;9.07;;;3.80;;
70850;SDS011;58475;49.662;9.636;2023-05-28T10:34:29;9.65;;;3.95;;
70850;SDS011;58475;49.662;9.636;2023-05-28T10:36:56;8.15;;;3.90;;
70850;SDS011;58475;49.662;9.636;2023-05-28T10:39:21;10.68;;;4.15;;
70850;SDS011;58475;49.662;9.636;2023-05-28T10:41:46;10.55;;;3.83;;
70850;SDS011;58475;49.662;9.636;2023-05-28T10:44:14;10.90;;;4.00;;
70850;SDS011;58475;49.662;9.636;2023-05-28T10:46:40;8.38;;;3.60;;
70850;SDS011;58475;49.662;9.636;2023-05-28T10:49:06;12.13;;;4.05;;
70850;SDS011;58475;49.662;9.636;2023-05-28T10:51:54;8.27;;;3.97;;
70850;SDS011;58475;49.662;9.636;2023-05-28T10:57:12;14.02;;;4.47;;
70850;SDS011;58475;49.662;9.636;2023-05-28T10:59:38;10.35;;;4.25;;
70850;SDS011;58475;49.662;9.636;2023-05-28T11:02:07;9.32;;;4.18;;
70850;SDS011;58475;49.662;9.636;2023-05-28T11:04:36;8.68;;;4.30;;
70850;SDS011;58475;49.662;9.636;2023-05-28T11:07:02;9.02;;;3.90;;
70850;SDS011;58475;49.662;9.636;2023-05-28T11:09:28;11.43;;;4.18;;
70850;SDS011;58475;49.662;9.636;2023-05-28T11:12:00;8.98;;;3.95;;
70850;SDS011;58475;49.662;9.636;2023-05-28T11:14:36;10.48;;;3.95;;
70850;SDS011;58475;49.662;9.636;2023-05-28T11:17:12;9.07;;;3.97;;
70850;SDS011;58475;49.662;9.636;2023-05-28T11:19:38;9.98;;;4.22;;
70850;SDS011;58475;49.662;9.636;2023-05-28T11:22:14;9.05;;;3.90;;
70850;SDS011;58475;49.662;9.636;2023-05-28T11:27:32;9.95;;;4.18;;
70850;SDS011;58475;49.662;9.636;2023-05-28T11:30:00;9.80;;;4.10;;
70850;SDS011;58475;49.662;9.636;2023-05-28T11:32:32;9.63;;;4.20;;
70850;SDS011;58475;49.662;9.636;2023-05-28T11:34:58;9.73;;;4.10;;
70850;SDS011;58475;49.662;9.636;2023-05-28T11:37:25;9.13;;;3.75;;
70850;SDS011;58475;49.662;9.636;2023-05-28T11:39:55;11.85;;;4.32;;
70850;SDS011;58475;49.662;9.636;2023-05-28T11:42:22;9.18;;;4.25;;
70850;SDS011;58475;49.662;9.636;2023-05-28T11:44:49;9.77;;;3.90;;
70850;SDS011;58475;49.662;9.636;2023-05-28T11:47:16;11.70;;;3.88;;
70850;SDS011;58475;49.662;9.636;2023-05-28T11:49:42;9.27;;;3.75;;
70850;SDS011;58475;49.662;9.636;2023-05-28T11:52:13;11.10;;;4.60;;
70850;SDS011;58475;49.662;9.636;2023-05-28T11:54:41;9.27;;;3.90;;
70850;SDS011;58475;49.662;9.636;2023-05-28T11:57:08;8.82;;;4.03;;
70850;SDS011;58475;49.662;9.636;2023-05-28T11:59:34;10.27;;;4.20;;
70850;SDS011;58475;49.662;9.636;2023-05-28T12:02:16;9.77;;;4.18;;
70850;SDS011;58475;49.662;9.636;2023-05-28T12:04:57;8.90;;;4.60;;
70850;SDS011;58475;49.662;9.636;2023-05-28T12:07:31;8.63;;;4.35;;
70850;SDS011;58475;49.662;9.636;2023-05-28T12:10:05;9.05;;;4.03;;
70850;SDS011;58475;49.662;9.636;2023-05-28T12:12:33;9.35;;;4.07;;
70850;SDS011;58475;49.662;9.636;2023-05-28T12:15:05;8.98;;;3.92;;
70850;SDS011;58475;49.662;9.636;2023-05-28T12:17:35;10.60;;;4.30;;
70850;SDS011;58475;49.662;9.636;2023-05-28T12:22:37;9.30;;;4.00;;
70850;SDS011;58475;49.662;9.636;2023-05-28T12:25:03;9.48;;;3.88;;
70850;SDS011;58475;49.662;9.636;2023-05-28T12:27:30;10.10;;;4.30;;
70850;SDS011;58475;49.662;9.636;2023-05-28T12:29:56;7.30;;;3.95;;
70850;SDS011;58475;49.662;9.636;2023-05-28T12:32:21;8.52;;;4.10;;
70850;SDS011;58475;49.662;9.636;2023-05-28T12:34:47;9.35;;;3.88;;
70850;SDS011;58475;49.662;9.636;2023-05-28T12:37:12;11.38;;;4.68;;
70850;SDS011;58475;49.662;9.636;2023-05-28T12:39:37;7.70;;;3.92;;
70850;SDS011;58475;49.662;9.636;2023-05-28T12:42:03;8.18;;;4.15;;
70850;SDS011;58475;49.662;9.636;2023-05-28T12:44:29;10.23;;;4.90;;
70850;SDS011;58475;49.662;9.636;2023-05-28T12:46:54;7.57;;;4.03;;
70850;SDS011;58475;49.662;9.636;2023-05-28T12:49:20;8.02;;;4.32;;
70850;SDS011;58475;49.662;9.636;2023-05-28T12:51:45;8.73;;;4.20;;
70850;SDS011;58475;49.662;9.636;2023-05-28T12:54:10;8.80;;;4.40;;
70850;SDS011;58475;49.662;9.636;2023-05-28T12:56:36;9.18;;;4.22;;
70850;SDS011;58475;49.662;9.636;2023-05-28T12:59:01;10.18;;;4.30;;
70850;SDS011;58475;49.662;9.636;2023-05-28T13:01:27;7.90;;;3.88;;
70850;SDS011;58475;49.662;9.636;2023-05-28T13:03:52;7.55;;;3.88;;
70850;SDS011;58475;49.662;9.636;2023-05-28T13:06:18;9.73;;;3.88;;
70850;SDS011;58475;49.662;9.636;2023-05-28T13:08:44;8.65;;;4.18;;
70850;SDS011;58475;49.662;9.636;2023-05-28T13:11:09;7.95;;;3.85;;
70850;SDS011;58475;49.662;9.636;2023-05-28T13:13:36;8.45;;;4.00;;
70850;SDS011;58475;49.662;9.636;2023-05-28T13:16:02;8.10;;;3.88;;
70850;SDS011;58475;49.662;9.636;2023-05-28T13:18:28;9.00;;;4.20;;
70850;SDS011;58475;49.662;9.636;2023-05-28T13:20:53;9.30;;;4.05;;
70850;SDS011;58475;49.662;9.636;2023-05-28T13:23:19;9.45;;;4.05;;
70850;SDS011;58475;49.662;9.636;2023-05-28T13:25:44;7.80;;;3.97;;
70850;SDS011;58475;49.662;9.636;2023-05-28T13:28:09;7.53;;;4.00;;
70850;SDS011;58475;49.662;9.636;2023-05-28T13:30:35;8.80;;;4.18;;
70850;SDS011;58475;49.662;9.636;2023-05-28T13:33:00;8.32;;;3.67;;
70850;SDS011;58475;49.662;9.636;2023-05-28T13:35:26;9.23;;;4.03;;
70850;SDS011;58475;49.662;9.636;2023-05-28T13:37:55;9.60;;;4.05;;
70850;SDS011;58475;49.662;9.636;2023-05-28T13:40:21;9.38;;;3.95;;
70850;SDS011;58475;49.662;9.636;2023-05-28T13:42:49;7.97;;;3.90;;
70850;SDS011;58475;49.662;9.636;2023-05-28T13:45:15;9.30;;;4.15;;
70850;SDS011;58475;49.662;9.636;2023-05-28T13:47:42;8.57;;;4.07;;
70850;SDS011;58475;49.662;9.636;2023-05-28T13:50:07;9.40;;;4.00;;
70850;SDS011;58475;49.662;9.636;2023-05-28T13:52:34;9.55;;;3.88;;
70850;SDS011;58475;49.662;9.636;2023-05-28T13:55:00;9.43;;;4.00;;
70850;SDS011;58475;49.662;9.636;2023-05-28T13:57:25;9.88;;;4.30;;
70850;SDS011;58475;49.662;9.636;2023-05-28T13:59:50;9.45;;;3.75;;
70850;SDS011;58475;49.662;9.636;2023-05-28T14:02:16;8.05;;;3.83;;
70850;SDS011;58475;49.662;9.636;2023-05-28T14:04:41;9.13;;;4.00;;
70850;SDS011;58475;49.662;9.636;2023-05-28T14:07:07;7.47;;;3.70;;
70850;SDS011;58475;49.662;9.636;2023-05-28T14:09:34;7.63;;;3.78;;
70850;SDS011;58475;49.662;9.636;2023-05-28T14:12:01;8.82;;;4.10;;
70850;SDS011;58475;49.662;9.636;2023-05-28T14:14:27;9.45;;;3.92;;
70850;SDS011;58475;49.662;9.636;2023-05-28T14:16:52;7.53;;;3.83;;
70850;SDS011;58475;49.662;9.636;2023-05-28T14:19:18;9.73;;;4.32;;
70850;SDS011;58475;49.662;9.636;2023-05-28T14:21:43;8.52;;;3.90;;
70850;SDS011;58475;49.662;9.636;2023-05-28T14:24:09;8.38;;;3.70;;
70850;SDS011;58475;49.662;9.636;2023-05-28T14:26:34;9.48;;;4.00;;
70850;SDS011;58475;49.662;9.636;2023-05-28T14:29:00;8.63;;;3.55;;
70850;SDS011;58475;49.662;9.636;2023-05-28T14:31:25;9.07;;;3.85;;
70850;SDS011;58475;49.662;9.636;2023-05-28T14:33:51;8.10;;;3.88;;
70850;SDS011;58475;49.662;9.636;2023-05-28T14:36:17;8.65;;;4.00;;
70850;SDS011;58475;49.662;9.636;2023-05-28T14:38:42;8.00;;;3.65;;
70850;SDS011;58475;49.662;9.636;2023-05-28T14:41:07;8.80;;;3.90;;
70850;SDS011;58475;49.662;9.636;2023-05-28T14:43:33;7.63;;;3.80;;
70850;SDS011;58475;49.662;9.636;2023-05-28T14:45:58;8.98;;;3.97;;
70850;SDS011;58475;49.662;9.636;2023-05-28T14:48:24;8.55;;;4.00;;
70850;SDS011;58475;49.662;9.636;2023-05-28T14:50:49;9.65;;;3.78;;
70850;SDS011;58475;49.662;9.636;2023-05-28T14:53:14;7.93;;;4.03;;
70850;SDS011;58475;49.662;9.636;2023-05-28T14:55:40;7.78;;;3.67;;
70850;SDS011;58475;49.662;9.636;2023-05-28T14:58:05;8.85;;;3.70;;
70850;SDS011;58475;49.662;9.636;2023-05-28T15:00:31;10.10;;;3.83;;